sensor_id;sensor_type;location;lat;lon;timestamp;temperature;humidity
1049;DHT22;513;51.444;7.196;2023-03-14T00:02:11;11.00;1.00
1049;DHT22;513;51.444;7.196;2023-03-14T00:04:38;11.00;1.00
1049;DHT22;513;51.444;7.196;2023-03-14T00:07:04;11.00;1.00
1049;DHT22;513;51.444;7.196;2023-03-14T00:09:31;11.00;1.00
1049;DHT22;513;51.444;7.196;2023-03-14T00:11:57;11.00;1.00
1049;DHT22;513;51.444;7.196;2023-03-14T00:14:24;11.00;1.00
1049;DHT22;513;51.444;7.196;2023-03-14T00:16:50;10.90;1.00
1049;DHT22;513;51.444;7.196;2023-03-14T00:19:18;10.90;99.90
1049;DHT22;513;51.444;7.196;2023-03-14T00:21:45;10.90;1.00
1049;DHT22;513;51.444;7.196;2023-03-14T00:24:11;10.90;99.90
1049;DHT22;513;51.444;7.196;2023-03-14T00:26:38;10.90;99.90
1049;DHT22;513;51.444;7.196;2023-03-14T00:29:04;10.80;99.90
1049;DHT22;513;51.444;7.196;2023-03-14T00:31:31;10.80;1.00
1049;DHT22;513;51.444;7.196;2023-03-14T00:33:58;10.80;1.00
1049;DHT22;513;51.444;7.196;2023-03-14T00:36:25;10.70;1.00
1049;DHT22;513;51.444;7.196;2023-03-14T00:38:52;10.70;1.00
1049;DHT22;513;51.444;7.196;2023-03-14T00:41:20;10.80;1.00
1049;DHT22;513;51.444;7.196;2023-03-14T00:43:48;10.80;1.00
1049;DHT22;513;51.444;7.196;2023-03-14T00:46:15;10.90;1.00
1049;DHT22;513;51.444;7.196;2023-03-14T00:48:41;11.00;99.90
1049;DHT22;513;51.444;7.196;2023-03-14T00:51:08;11.00;99.90
1049;DHT22;513;51.444;7.196;2023-03-14T00:53:38;11.00;99.90
1049;DHT22;513;51.444;7.196;2023-03-14T00:56:06;11.00;99.90
1049;DHT22;513;51.444;7.196;2023-03-14T00:58:33;11.00;99.90
1049;DHT22;513;51.444;7.196;2023-03-14T01:01:04;11.10;99.90
1049;DHT22;513;51.444;7.196;2023-03-14T01:03:31;11.30;99.90
1049;DHT22;513;51.444;7.196;2023-03-14T01:06:05;11.10;1.00
1049;DHT22;513;51.444;7.196;2023-03-14T01:08:32;10.60;93.30
1049;DHT22;513;51.444;7.196;2023-03-14T01:11:00;10.30;99.90
1049;DHT22;513;51.444;7.196;2023-03-14T01:13:30;9.80;99.90
1049;DHT22;513;51.444;7.196;2023-03-14T01:16:00;9.40;99.90
1049;DHT22;513;51.444;7.196;2023-03-14T01:18:27;9.10;99.90
1049;DHT22;513;51.444;7.196;2023-03-14T01:20:53;9.00;99.90
1049;DHT22;513;51.444;7.196;2023-03-14T01:23:20;8.90;99.90
1049;DHT22;513;51.444;7.196;2023-03-14T01:25:46;8.90;99.90
1049;DHT22;513;51.444;7.196;2023-03-14T01:28:14;8.90;99.90
1049;DHT22;513;51.444;7.196;2023-03-14T01:30:41;8.90;99.90
1049;DHT22;513;51.444;7.196;2023-03-14T01:33:07;8.90;99.90
1049;DHT22;513;51.444;7.196;2023-03-14T01:35:34;8.90;99.90
1049;DHT22;513;51.444;7.196;2023-03-14T01:38:00;8.90;99.90
1049;DHT22;513;51.444;7.196;2023-03-14T01:40:27;8.90;99.90
1049;DHT22;513;51.444;7.196;2023-03-14T01:42:54;8.90;99.90
1049;DHT22;513;51.444;7.196;2023-03-14T01:48:26;8.90;99.90
1049;DHT22;513;51.444;7.196;2023-03-14T01:50:54;8.90;99.90
1049;DHT22;513;51.444;7.196;2023-03-14T02:52:07;8.80;99.90
1049;DHT22;513;51.444;7.196;2023-03-14T03:01:54;9.00;99.90
1049;DHT22;513;51.444;7.196;2023-03-14T06:15:21;9.00;99.90
1049;DHT22;513;51.444;7.196;2023-03-14T06:47:14;8.40;99.90
1049;DHT22;513;51.444;7.196;2023-03-14T06:49:41;8.60;99.90
1049;DHT22;513;51.444;7.196;2023-03-14T06:52:07;8.60;99.90
1049;DHT22;513;51.444;7.196;2023-03-14T06:54:34;8.70;99.90
1049;DHT22;513;51.444;7.196;2023-03-14T06:57:00;8.60;99.90
1049;DHT22;513;51.444;7.196;2023-03-14T06:59:27;8.60;99.90
1049;DHT22;513;51.444;7.196;2023-03-14T07:01:54;8.60;99.90
1049;DHT22;513;51.444;7.196;2023-03-14T07:04:22;8.70;99.90
1049;DHT22;513;51.444;7.196;2023-03-14T07:06:48;8.70;99.90
1049;DHT22;513;51.444;7.196;2023-03-14T07:09:15;8.70;99.90
1049;DHT22;513;51.444;7.196;2023-03-14T07:11:42;8.80;99.90
1049;DHT22;513;51.444;7.196;2023-03-14T07:14:08;8.90;99.90
1049;DHT22;513;51.444;7.196;2023-03-14T07:16:35;8.80;99.90
1049;DHT22;513;51.444;7.196;2023-03-14T07:19:02;8.80;99.90
1049;DHT22;513;51.444;7.196;2023-03-14T07:21:30;8.90;99.90
1049;DHT22;513;51.444;7.196;2023-03-14T07:23:59;8.90;99.90
1049;DHT22;513;51.444;7.196;2023-03-14T07:26:26;9.00;99.90
1049;DHT22;513;51.444;7.196;2023-03-14T07:28:52;8.90;99.90
1049;DHT22;513;51.444;7.196;2023-03-14T07:31:19;9.00;99.90
1049;DHT22;513;51.444;7.196;2023-03-14T07:33:45;9.10;99.90
1049;DHT22;513;51.444;7.196;2023-03-14T07:36:12;9.20;99.90
1049;DHT22;513;51.444;7.196;2023-03-14T07:38:40;9.20;99.90
1049;DHT22;513;51.444;7.196;2023-03-14T07:41:07;9.20;99.90
1049;DHT22;513;51.444;7.196;2023-03-14T07:43:33;9.30;99.90
1049;DHT22;513;51.444;7.196;2023-03-14T07:46:00;9.30;99.90
1049;DHT22;513;51.444;7.196;2023-03-14T07:48:27;9.30;99.90
1049;DHT22;513;51.444;7.196;2023-03-14T07:50:54;9.30;99.90
1049;DHT22;513;51.444;7.196;2023-03-14T07:53:23;9.30;99.90
1049;DHT22;513;51.444;7.196;2023-03-14T07:55:52;9.30;99.90
1049;DHT22;513;51.444;7.196;2023-03-14T07:58:18;9.30;99.90
1049;DHT22;513;51.444;7.196;2023-03-14T08:00:46;9.30;99.90
1049;DHT22;513;51.444;7.196;2023-03-14T08:03:13;9.30;99.90
1049;DHT22;513;51.444;7.196;2023-03-14T08:05:40;9.30;99.90
1049;DHT22;513;51.444;7.196;2023-03-14T08:08:07;9.40;99.90
1049;DHT22;513;51.444;7.196;2023-03-14T08:10:34;9.30;99.90
1049;DHT22;513;51.444;7.196;2023-03-14T08:13:02;9.40;99.90
1049;DHT22;513;51.444;7.196;2023-03-14T08:15:29;9.40;99.90
1049;DHT22;513;51.444;7.196;2023-03-14T08:17:56;9.40;99.90
1049;DHT22;513;51.444;7.196;2023-03-14T08:20:23;9.50;99.90
1049;DHT22;513;51.444;7.196;2023-03-14T08:22:50;9.50;99.90
1049;DHT22;513;51.444;7.196;2023-03-14T08:25:16;9.50;99.90
1049;DHT22;513;51.444;7.196;2023-03-14T08:27:43;9.60;99.90
1049;DHT22;513;51.444;7.196;2023-03-14T08:30:12;9.60;99.90
1049;DHT22;513;51.444;7.196;2023-03-14T08:32:39;9.70;99.90
1049;DHT22;513;51.444;7.196;2023-03-14T08:35:06;9.70;99.90
1049;DHT22;513;51.444;7.196;2023-03-14T08:37:33;9.70;99.90
1049;DHT22;513;51.444;7.196;2023-03-14T08:40:00;9.80;99.90
1049;DHT22;513;51.444;7.196;2023-03-14T08:42:30;9.80;99.90
1049;DHT22;513;51.444;7.196;2023-03-14T08:44:56;9.80;99.90
1049;DHT22;513;51.444;7.196;2023-03-14T08:47:24;9.80;99.90
1049;DHT22;513;51.444;7.196;2023-03-14T08:49:51;10.00;99.90
1049;DHT22;513;51.444;7.196;2023-03-14T08:52:17;9.90;99.90
1049;DHT22;513;51.444;7.196;2023-03-14T08:54:44;10.00;99.90
1049;DHT22;513;51.444;7.196;2023-03-14T08:57:10;10.00;99.90
1049;DHT22;513;51.444;7.196;2023-03-14T08:59:37;10.10;99.90
1049;DHT22;513;51.444;7.196;2023-03-14T09:02:03;10.20;99.90
1049;DHT22;513;51.444;7.196;2023-03-14T09:04:31;10.20;99.90
1049;DHT22;513;51.444;7.196;2023-03-14T09:06:58;10.20;99.90
1049;DHT22;513;51.444;7.196;2023-03-14T09:09:25;10.30;99.90
1049;DHT22;513;51.444;7.196;2023-03-14T09:11:52;10.30;99.90
1049;DHT22;513;51.444;7.196;2023-03-14T09:14:19;10.20;99.90
1049;DHT22;513;51.444;7.196;2023-03-14T09:16:46;10.30;99.90
1049;DHT22;513;51.444;7.196;2023-03-14T09:19:12;10.30;99.90
1049;DHT22;513;51.444;7.196;2023-03-14T09:21:40;10.00;99.90
1049;DHT22;513;51.444;7.196;2023-03-14T09:24:07;9.90;99.90
1049;DHT22;513;51.444;7.196;2023-03-14T09:26:34;9.70;99.90
1049;DHT22;513;51.444;7.196;2023-03-14T09:29:00;9.60;99.90
1049;DHT22;513;51.444;7.196;2023-03-14T09:31:27;9.50;99.90
1049;DHT22;513;51.444;7.196;2023-03-14T09:33:54;9.40;99.90
1049;DHT22;513;51.444;7.196;2023-03-14T09:36:21;9.50;99.90
1049;DHT22;513;51.444;7.196;2023-03-14T09:38:49;9.40;99.90
1049;DHT22;513;51.444;7.196;2023-03-14T09:41:16;9.40;99.90
1049;DHT22;513;51.444;7.196;2023-03-14T09:43:43;9.30;99.90
1049;DHT22;513;51.444;7.196;2023-03-14T09:46:11;9.10;99.90
1049;DHT22;513;51.444;7.196;2023-03-14T09:48:38;8.70;99.90
1049;DHT22;513;51.444;7.196;2023-03-14T09:51:07;8.60;99.90
1049;DHT22;513;51.444;7.196;2023-03-14T09:53:39;8.50;99.90
1049;DHT22;513;51.444;7.196;2023-03-14T09:56:10;8.50;99.90
1049;DHT22;513;51.444;7.196;2023-03-14T09:58:37;8.30;99.90
1049;DHT22;513;51.444;7.196;2023-03-14T10:01:07;8.20;99.90
1049;DHT22;513;51.444;7.196;2023-03-14T10:03:35;8.20;99.90
1049;DHT22;513;51.444;7.196;2023-03-14T10:06:02;8.20;99.90
1049;DHT22;513;51.444;7.196;2023-03-14T10:08:35;8.10;99.90
1049;DHT22;513;51.444;7.196;2023-03-14T10:11:01;8.10;99.90
1049;DHT22;513;51.444;7.196;2023-03-14T10:13:29;8.10;99.90
1049;DHT22;513;51.444;7.196;2023-03-14T10:15:58;8.20;99.90
1049;DHT22;513;51.444;7.196;2023-03-14T10:18:25;8.20;99.90
1049;DHT22;513;51.444;7.196;2023-03-14T10:21:00;8.20;99.90
1049;DHT22;513;51.444;7.196;2023-03-14T10:23:28;8.20;99.90
1049;DHT22;513;51.444;7.196;2023-03-14T10:26:00;8.10;99.90
1049;DHT22;513;51.444;7.196;2023-03-14T10:28:28;8.00;99.90
1049;DHT22;513;51.444;7.196;2023-03-14T10:30:56;8.00;99.90
1049;DHT22;513;51.444;7.196;2023-03-14T10:33:24;7.90;99.90
1049;DHT22;513;51.444;7.196;2023-03-14T10:35:54;7.90;99.90
1049;DHT22;513;51.444;7.196;2023-03-14T10:38:22;7.90;99.90
1049;DHT22;513;51.444;7.196;2023-03-14T10:40:50;7.90;99.90
1049;DHT22;513;51.444;7.196;2023-03-14T10:43:18;8.00;99.90
1049;DHT22;513;51.444;7.196;2023-03-14T10:45:51;7.90;99.90
1049;DHT22;513;51.444;7.196;2023-03-14T10:48:20;7.80;99.90
1049;DHT22;513;51.444;7.196;2023-03-14T10:50:47;7.50;99.90
1049;DHT22;513;51.444;7.196;2023-03-14T10:53:16;7.40;99.90
1049;DHT22;513;51.444;7.196;2023-03-14T10:55:43;7.20;99.90
1049;DHT22;513;51.444;7.196;2023-03-14T10:58:20;7.20;99.90
1049;DHT22;513;51.444;7.196;2023-03-14T11:00:47;7.20;99.90
1049;DHT22;513;51.444;7.196;2023-03-14T11:03:16;7.20;99.90
1049;DHT22;513;51.444;7.196;2023-03-14T11:05:48;7.30;99.90
1049;DHT22;513;51.444;7.196;2023-03-14T11:08:23;7.20;99.90
1049;DHT22;513;51.444;7.196;2023-03-14T11:10:54;7.10;99.90
1049;DHT22;513;51.444;7.196;2023-03-14T11:13:26;7.10;99.90
1049;DHT22;513;51.444;7.196;2023-03-14T11:15:58;7.10;99.90
1049;DHT22;513;51.444;7.196;2023-03-14T11:18:48;6.90;99.90
1049;DHT22;513;51.444;7.196;2023-03-14T11:21:22;6.90;99.90
1049;DHT22;513;51.444;7.196;2023-03-14T11:23:56;6.70;99.90
1049;DHT22;513;51.444;7.196;2023-03-14T11:26:32;6.70;99.90
1049;DHT22;513;51.444;7.196;2023-03-14T11:29:12;6.70;99.90
1049;DHT22;513;51.444;7.196;2023-03-14T11:31:40;6.80;99.90
1049;DHT22;513;51.444;7.196;2023-03-14T11:34:12;6.80;99.90
1049;DHT22;513;51.444;7.196;2023-03-14T11:36:44;6.70;99.90
1049;DHT22;513;51.444;7.196;2023-03-14T11:39:13;6.60;99.90
1049;DHT22;513;51.444;7.196;2023-03-14T11:41:41;6.50;99.90
1049;DHT22;513;51.444;7.196;2023-03-14T11:44:10;6.60;99.90
1049;DHT22;513;51.444;7.196;2023-03-14T11:46:41;6.60;99.90
1049;DHT22;513;51.444;7.196;2023-03-14T11:49:11;6.60;99.90
1049;DHT22;513;51.444;7.196;2023-03-14T11:51:40;6.60;99.90
1049;DHT22;513;51.444;7.196;2023-03-14T11:54:11;6.50;99.90
1049;DHT22;513;51.444;7.196;2023-03-14T11:56:42;6.50;99.90
1049;DHT22;513;51.444;7.196;2023-03-14T11:59:12;6.40;99.90
1049;DHT22;513;51.444;7.196;2023-03-14T12:01:45;6.30;99.90
1049;DHT22;513;51.444;7.196;2023-03-14T12:04:18;6.30;99.90
1049;DHT22;513;51.444;7.196;2023-03-14T12:06:47;6.30;99.90
1049;DHT22;513;51.444;7.196;2023-03-14T12:09:16;6.30;99.90
1049;DHT22;513;51.444;7.196;2023-03-14T12:11:43;6.30;99.90
1049;DHT22;513;51.444;7.196;2023-03-14T12:14:17;6.30;99.90
1049;DHT22;513;51.444;7.196;2023-03-14T12:16:45;6.10;99.90
1049;DHT22;513;51.444;7.196;2023-03-14T12:22:07;6.00;99.90
1049;DHT22;513;51.444;7.196;2023-03-14T12:24:36;5.90;99.90
1049;DHT22;513;51.444;7.196;2023-03-14T12:27:04;6.00;99.90
1049;DHT22;513;51.444;7.196;2023-03-14T12:29:34;6.10;99.90
1049;DHT22;513;51.444;7.196;2023-03-14T12:32:23;6.20;99.90
1049;DHT22;513;51.444;7.196;2023-03-14T12:34:50;6.30;99.90
1049;DHT22;513;51.444;7.196;2023-03-14T12:37:18;6.50;99.90
1049;DHT22;513;51.444;7.196;2023-03-14T12:39:53;6.80;99.90
1049;DHT22;513;51.444;7.196;2023-03-14T12:42:34;6.80;99.90
1049;DHT22;513;51.444;7.196;2023-03-14T12:45:13;6.80;99.90
1049;DHT22;513;51.444;7.196;2023-03-14T12:50:36;6.90;90.90
1049;DHT22;513;51.444;7.196;2023-03-14T12:53:28;7.10;99.20
1049;DHT22;513;51.444;7.196;2023-03-14T12:56:00;7.20;89.10
1049;DHT22;513;51.444;7.196;2023-03-14T12:58:30;7.10;57.80
1049;DHT22;513;51.444;7.196;2023-03-14T13:00:59;7.10;67.10
1049;DHT22;513;51.444;7.196;2023-03-14T13:03:26;7.00;67.20
1049;DHT22;513;51.444;7.196;2023-03-14T13:06:04;7.00;78.50
1049;DHT22;513;51.444;7.196;2023-03-14T13:08:34;6.50;87.20
1049;DHT22;513;51.444;7.196;2023-03-14T13:11:01;6.40;99.90
1049;DHT22;513;51.444;7.196;2023-03-14T13:13:29;6.10;99.90
1049;DHT22;513;51.444;7.196;2023-03-14T13:15:56;5.90;99.90
1049;DHT22;513;51.444;7.196;2023-03-14T13:18:27;5.80;99.90
1049;DHT22;513;51.444;7.196;2023-03-14T13:20:58;5.70;99.90
1049;DHT22;513;51.444;7.196;2023-03-14T13:23:27;5.30;99.90
1049;DHT22;513;51.444;7.196;2023-03-14T13:25:54;5.20;99.90
1049;DHT22;513;51.444;7.196;2023-03-14T13:28:21;5.40;99.90
1049;DHT22;513;51.444;7.196;2023-03-14T13:30:48;5.60;99.90
1049;DHT22;513;51.444;7.196;2023-03-14T13:33:16;5.80;99.90
1049;DHT22;513;51.444;7.196;2023-03-14T13:35:44;5.90;99.90
1049;DHT22;513;51.444;7.196;2023-03-14T13:38:15;6.00;99.90
1049;DHT22;513;51.444;7.196;2023-03-14T13:40:43;6.00;99.90
1049;DHT22;513;51.444;7.196;2023-03-14T13:43:13;6.10;99.90
1049;DHT22;513;51.444;7.196;2023-03-14T13:45:41;6.10;99.90
1049;DHT22;513;51.444;7.196;2023-03-14T13:48:08;6.00;99.90
1049;DHT22;513;51.444;7.196;2023-03-14T13:50:36;5.90;99.90
1049;DHT22;513;51.444;7.196;2023-03-14T13:53:03;5.70;99.90
1049;DHT22;513;51.444;7.196;2023-03-14T13:55:29;5.80;99.90
1049;DHT22;513;51.444;7.196;2023-03-14T13:57:57;5.70;99.90
1049;DHT22;513;51.444;7.196;2023-03-14T14:00:24;5.70;99.90
1049;DHT22;513;51.444;7.196;2023-03-14T14:02:52;6.00;99.90
1049;DHT22;513;51.444;7.196;2023-03-14T14:05:19;6.20;99.90
1049;DHT22;513;51.444;7.196;2023-03-14T14:07:46;6.40;99.90
1049;DHT22;513;51.444;7.196;2023-03-14T14:10:13;6.60;99.90
1049;DHT22;513;51.444;7.196;2023-03-14T14:12:41;6.70;99.90
1049;DHT22;513;51.444;7.196;2023-03-14T14:15:10;6.80;99.90
1049;DHT22;513;51.444;7.196;2023-03-14T14:17:38;6.90;99.20
1049;DHT22;513;51.444;7.196;2023-03-14T14:20:07;7.00;99.90
1049;DHT22;513;51.444;7.196;2023-03-14T14:22:34;7.30;99.90
1049;DHT22;513;51.444;7.196;2023-03-14T14:25:01;7.20;99.90
1049;DHT22;513;51.444;7.196;2023-03-14T14:27:32;7.40;99.90
1049;DHT22;513;51.444;7.196;2023-03-14T14:30:00;7.00;99.90
1049;DHT22;513;51.444;7.196;2023-03-14T14:32:35;7.10;61.00
1049;DHT22;513;51.444;7.196;2023-03-14T14:35:02;6.90;1.00
1049;DHT22;513;51.444;7.196;2023-03-14T14:37:30;7.00;1.00
1049;DHT22;513;51.444;7.196;2023-03-14T14:39:58;7.10;1.00
1049;DHT22;513;51.444;7.196;2023-03-14T14:42:26;7.20;1.00
1049;DHT22;513;51.444;7.196;2023-03-14T14:44:52;7.20;99.90
1049;DHT22;513;51.444;7.196;2023-03-14T14:47:20;7.20;1.00
1049;DHT22;513;51.444;7.196;2023-03-14T14:49:49;7.20;1.00
1049;DHT22;513;51.444;7.196;2023-03-14T14:52:16;7.20;1.00
1049;DHT22;513;51.444;7.196;2023-03-14T14:54:43;7.30;99.90
1049;DHT22;513;51.444;7.196;2023-03-14T14:57:17;7.30;1.00
1049;DHT22;513;51.444;7.196;2023-03-14T14:59:44;7.40;99.90
1049;DHT22;513;51.444;7.196;2023-03-14T15:02:16;7.50;99.90
1049;DHT22;513;51.444;7.196;2023-03-14T15:04:52;7.50;99.90
1049;DHT22;513;51.444;7.196;2023-03-14T15:07:18;7.40;99.90
1049;DHT22;513;51.444;7.196;2023-03-14T15:09:45;7.30;99.90
1049;DHT22;513;51.444;7.196;2023-03-14T15:12:12;7.30;99.90
1049;DHT22;513;51.444;7.196;2023-03-14T15:14:38;7.30;99.90
1049;DHT22;513;51.444;7.196;2023-03-14T15:17:05;7.20;3.60
1049;DHT22;513;51.444;7.196;2023-03-14T15:19:32;7.20;99.90
1049;DHT22;513;51.444;7.196;2023-03-14T15:22:00;7.30;84.70
1049;DHT22;513;51.444;7.196;2023-03-14T15:24:26;7.20;95.50
1049;DHT22;513;51.444;7.196;2023-03-14T15:26:53;7.20;95.80
1049;DHT22;513;51.444;7.196;2023-03-14T15:29:19;7.30;20.90
1049;DHT22;513;51.444;7.196;2023-03-14T15:31:46;7.20;92.80
1049;DHT22;513;51.444;7.196;2023-03-14T15:34:13;7.20;1.00
1049;DHT22;513;51.444;7.196;2023-03-14T15:36:40;7.20;1.00
1049;DHT22;513;51.444;7.196;2023-03-14T15:39:10;7.20;3.30
1049;DHT22;513;51.444;7.196;2023-03-14T15:41:37;7.20;1.00
1049;DHT22;513;51.444;7.196;2023-03-14T15:44:04;7.00;1.00
1049;DHT22;513;51.444;7.196;2023-03-14T15:46:30;6.90;1.00
1049;DHT22;513;51.444;7.196;2023-03-14T15:48:57;6.90;1.00
1049;DHT22;513;51.444;7.196;2023-03-14T15:51:23;6.80;1.00
1049;DHT22;513;51.444;7.196;2023-03-14T15:53:50;6.70;1.00
1049;DHT22;513;51.444;7.196;2023-03-14T15:56:19;6.70;99.90
1049;DHT22;513;51.444;7.196;2023-03-14T15:58:45;6.70;1.00
1049;DHT22;513;51.444;7.196;2023-03-14T16:01:13;6.60;99.90
1049;DHT22;513;51.444;7.196;2023-03-14T16:03:41;6.50;99.90
1049;DHT22;513;51.444;7.196;2023-03-14T16:06:09;6.50;99.90
1049;DHT22;513;51.444;7.196;2023-03-14T16:08:36;6.50;99.90
1049;DHT22;513;51.444;7.196;2023-03-14T16:11:02;6.30;99.90
1049;DHT22;513;51.444;7.196;2023-03-14T16:13:32;6.20;99.90
1049;DHT22;513;51.444;7.196;2023-03-14T16:16:00;6.30;99.90
1049;DHT22;513;51.444;7.196;2023-03-14T16:18:28;6.20;99.90
1049;DHT22;513;51.444;7.196;2023-03-14T16:20:57;6.20;99.90
1049;DHT22;513;51.444;7.196;2023-03-14T16:23:24;6.20;99.90
1049;DHT22;513;51.444;7.196;2023-03-14T16:25:52;6.20;99.90
1049;DHT22;513;51.444;7.196;2023-03-14T16:28:19;6.20;99.90
1049;DHT22;513;51.444;7.196;2023-03-14T16:30:48;6.10;99.90
1049;DHT22;513;51.444;7.196;2023-03-14T16:33:14;6.00;99.90
1049;DHT22;513;51.444;7.196;2023-03-14T16:35:41;6.30;99.90
1049;DHT22;513;51.444;7.196;2023-03-14T16:38:18;6.40;99.90
1049;DHT22;513;51.444;7.196;2023-03-14T16:40:55;6.40;99.90
1049;DHT22;513;51.444;7.196;2023-03-14T16:43:21;6.30;99.90
1049;DHT22;513;51.444;7.196;2023-03-14T16:45:50;6.20;99.90
1049;DHT22;513;51.444;7.196;2023-03-14T16:48:17;6.10;99.90
1049;DHT22;513;51.444;7.196;2023-03-14T16:50:44;6.00;99.90
1049;DHT22;513;51.444;7.196;2023-03-14T16:53:11;6.00;99.90
1049;DHT22;513;51.444;7.196;2023-03-14T16:55:40;6.00;99.90
1049;DHT22;513;51.444;7.196;2023-03-14T16:58:07;6.00;99.90
1049;DHT22;513;51.444;7.196;2023-03-14T17:00:33;5.90;99.90
1049;DHT22;513;51.444;7.196;2023-03-14T17:03:02;5.90;99.90
1049;DHT22;513;51.444;7.196;2023-03-14T17:05:29;5.90;99.90
1049;DHT22;513;51.444;7.196;2023-03-14T17:07:55;5.80;99.90
1049;DHT22;513;51.444;7.196;2023-03-14T17:10:23;5.80;99.90
1049;DHT22;513;51.444;7.196;2023-03-14T17:12:50;5.70;99.90
1049;DHT22;513;51.444;7.196;2023-03-14T17:15:17;5.60;99.90
1049;DHT22;513;51.444;7.196;2023-03-14T17:17:43;5.50;99.90
1049;DHT22;513;51.444;7.196;2023-03-14T17:20:12;5.50;99.90
1049;DHT22;513;51.444;7.196;2023-03-14T17:22:38;5.50;99.90
1049;DHT22;513;51.444;7.196;2023-03-14T17:25:06;5.50;99.90
1049;DHT22;513;51.444;7.196;2023-03-14T17:27:33;5.50;99.90
1049;DHT22;513;51.444;7.196;2023-03-14T17:30:00;5.40;99.90
1049;DHT22;513;51.444;7.196;2023-03-14T17:32:27;5.50;99.90
1049;DHT22;513;51.444;7.196;2023-03-14T17:34:54;5.50;99.90
1049;DHT22;513;51.444;7.196;2023-03-14T17:37:22;5.40;99.90
1049;DHT22;513;51.444;7.196;2023-03-14T17:39:48;5.40;99.90
1049;DHT22;513;51.444;7.196;2023-03-14T17:42:15;5.40;99.90
1049;DHT22;513;51.444;7.196;2023-03-14T17:44:42;5.50;99.90
1049;DHT22;513;51.444;7.196;2023-03-14T17:47:10;5.40;99.90
1049;DHT22;513;51.444;7.196;2023-03-14T17:49:37;5.40;99.90
1049;DHT22;513;51.444;7.196;2023-03-14T17:52:05;5.30;99.90
1049;DHT22;513;51.444;7.196;2023-03-14T17:54:34;5.30;99.90
1049;DHT22;513;51.444;7.196;2023-03-14T17:57:01;5.20;99.90
1049;DHT22;513;51.444;7.196;2023-03-14T17:59:27;5.20;99.90
1049;DHT22;513;51.444;7.196;2023-03-14T18:01:54;5.20;99.90
1049;DHT22;513;51.444;7.196;2023-03-14T18:04:21;5.20;99.90
1049;DHT22;513;51.444;7.196;2023-03-14T18:06:47;5.20;99.90
1049;DHT22;513;51.444;7.196;2023-03-14T18:09:15;5.20;99.90
1049;DHT22;513;51.444;7.196;2023-03-14T18:11:43;5.20;99.90
1049;DHT22;513;51.444;7.196;2023-03-14T18:14:09;5.10;99.90
1049;DHT22;513;51.444;7.196;2023-03-14T18:16:40;5.10;99.90
1049;DHT22;513;51.444;7.196;2023-03-14T18:19:13;5.10;99.90
1049;DHT22;513;51.444;7.196;2023-03-14T18:21:40;5.10;99.90
1049;DHT22;513;51.444;7.196;2023-03-14T18:24:07;5.10;99.90
1049;DHT22;513;51.444;7.196;2023-03-14T18:26:34;5.00;99.90
1049;DHT22;513;51.444;7.196;2023-03-14T18:29:03;5.00;99.90
1049;DHT22;513;51.444;7.196;2023-03-14T18:31:29;5.10;99.90
1049;DHT22;513;51.444;7.196;2023-03-14T18:33:59;4.90;99.90
1049;DHT22;513;51.444;7.196;2023-03-14T18:36:26;5.10;99.90
1049;DHT22;513;51.444;7.196;2023-03-14T18:38:53;5.00;99.90
1049;DHT22;513;51.444;7.196;2023-03-14T18:41:22;5.00;99.90
1049;DHT22;513;51.444;7.196;2023-03-14T18:43:49;5.30;99.90
1049;DHT22;513;51.444;7.196;2023-03-14T18:46:19;4.80;99.90
1049;DHT22;513;51.444;7.196;2023-03-14T18:48:46;4.70;99.90
1049;DHT22;513;51.444;7.196;2023-03-14T18:51:20;4.70;99.90
1049;DHT22;513;51.444;7.196;2023-03-14T18:53:47;4.60;99.90
1049;DHT22;513;51.444;7.196;2023-03-14T18:56:14;4.70;99.90
1049;DHT22;513;51.444;7.196;2023-03-14T18:58:41;4.70;99.90
1049;DHT22;513;51.444;7.196;2023-03-14T19:01:08;4.70;99.90
1049;DHT22;513;51.444;7.196;2023-03-14T19:03:38;4.70;99.90
1049;DHT22;513;51.444;7.196;2023-03-14T19:06:06;4.60;99.90
1049;DHT22;513;51.444;7.196;2023-03-14T19:08:34;4.70;99.90
1049;DHT22;513;51.444;7.196;2023-03-14T19:11:02;4.50;99.90
1049;DHT22;513;51.444;7.196;2023-03-14T19:13:30;4.60;99.90
1049;DHT22;513;51.444;7.196;2023-03-14T19:15:58;4.60;99.90
1049;DHT22;513;51.444;7.196;2023-03-14T19:18:25;4.60;1.00
1049;DHT22;513;51.444;7.196;2023-03-14T19:20:57;4.70;1.00
1049;DHT22;513;51.444;7.196;2023-03-14T19:23:25;4.70;1.00
1049;DHT22;513;51.444;7.196;2023-03-14T19:25:53;4.10;1.00
1049;DHT22;513;51.444;7.196;2023-03-14T19:28:20;4.70;1.00
1049;DHT22;513;51.444;7.196;2023-03-14T19:30:48;4.50;1.00
1049;DHT22;513;51.444;7.196;2023-03-14T19:33:16;4.50;1.00
1049;DHT22;513;51.444;7.196;2023-03-14T19:35:43;4.40;1.00
1049;DHT22;513;51.444;7.196;2023-03-14T19:38:12;4.40;1.00
1049;DHT22;513;51.444;7.196;2023-03-14T19:40:40;4.40;1.00
1049;DHT22;513;51.444;7.196;2023-03-14T19:43:08;4.40;1.00
1049;DHT22;513;51.444;7.196;2023-03-14T19:45:36;4.40;1.00
1049;DHT22;513;51.444;7.196;2023-03-14T19:48:04;4.40;1.00
1049;DHT22;513;51.444;7.196;2023-03-14T19:50:32;4.40;1.00
1049;DHT22;513;51.444;7.196;2023-03-14T19:52:59;4.40;1.00
1049;DHT22;513;51.444;7.196;2023-03-14T19:55:27;4.40;1.00
1049;DHT22;513;51.444;7.196;2023-03-14T19:57:53;4.40;1.00
1049;DHT22;513;51.444;7.196;2023-03-14T20:00:21;4.30;1.00
1049;DHT22;513;51.444;7.196;2023-03-14T20:02:48;4.30;1.00
1049;DHT22;513;51.444;7.196;2023-03-14T20:05:17;4.40;1.00
1049;DHT22;513;51.444;7.196;2023-03-14T20:07:44;4.30;1.00
1049;DHT22;513;51.444;7.196;2023-03-14T20:10:13;4.40;1.00
1049;DHT22;513;51.444;7.196;2023-03-14T20:12:41;4.40;1.00
1049;DHT22;513;51.444;7.196;2023-03-14T20:15:09;4.40;1.00
1049;DHT22;513;51.444;7.196;2023-03-14T20:17:39;4.10;1.00
1049;DHT22;513;51.444;7.196;2023-03-14T20:20:07;4.20;1.00
1049;DHT22;513;51.444;7.196;2023-03-14T20:22:35;4.20;1.00
1049;DHT22;513;51.444;7.196;2023-03-14T20:25:03;4.30;1.00
1049;DHT22;513;51.444;7.196;2023-03-14T20:27:30;4.30;1.00
1049;DHT22;513;51.444;7.196;2023-03-14T20:29:58;4.30;1.00
1049;DHT22;513;51.444;7.196;2023-03-14T20:32:26;4.30;1.00
1049;DHT22;513;51.444;7.196;2023-03-14T20:34:53;4.30;1.00
1049;DHT22;513;51.444;7.196;2023-03-14T20:37:20;4.20;1.00
1049;DHT22;513;51.444;7.196;2023-03-14T20:39:47;4.10;1.00
1049;DHT22;513;51.444;7.196;2023-03-14T20:42:14;4.10;1.00
1049;DHT22;513;51.444;7.196;2023-03-14T20:44:40;4.00;12.70
1049;DHT22;513;51.444;7.196;2023-03-14T20:47:08;4.10;43.80
1049;DHT22;513;51.444;7.196;2023-03-14T20:49:36;4.00;27.40
1049;DHT22;513;51.444;7.196;2023-03-14T20:52:03;4.00;67.90
1049;DHT22;513;51.444;7.196;2023-03-14T20:54:30;4.00;44.00
1049;DHT22;513;51.444;7.196;2023-03-14T20:56:57;3.90;70.60
1049;DHT22;513;51.444;7.196;2023-03-14T20:59:24;4.00;99.90
1049;DHT22;513;51.444;7.196;2023-03-14T21:01:52;4.20;99.90
1049;DHT22;513;51.444;7.196;2023-03-14T21:04:21;4.50;1.00
1049;DHT22;513;51.444;7.196;2023-03-14T21:06:49;4.60;94.40
1049;DHT22;513;51.444;7.196;2023-03-14T21:09:19;4.60;99.90
1049;DHT22;513;51.444;7.196;2023-03-14T21:11:46;4.50;99.90
1049;DHT22;513;51.444;7.196;2023-03-14T21:14:13;4.40;99.90
1049;DHT22;513;51.444;7.196;2023-03-14T21:16:41;4.30;99.90
1049;DHT22;513;51.444;7.196;2023-03-14T21:19:07;4.10;99.90
1049;DHT22;513;51.444;7.196;2023-03-14T21:21:35;4.00;99.90
1049;DHT22;513;51.444;7.196;2023-03-14T21:24:03;4.00;99.90
1049;DHT22;513;51.444;7.196;2023-03-14T21:26:30;3.90;99.90
1049;DHT22;513;51.444;7.196;2023-03-14T21:28:57;3.80;99.90
1049;DHT22;513;51.444;7.196;2023-03-14T21:31:24;3.70;99.90
1049;DHT22;513;51.444;7.196;2023-03-14T21:33:50;3.70;99.90
1049;DHT22;513;51.444;7.196;2023-03-14T21:36:17;3.70;99.90
1049;DHT22;513;51.444;7.196;2023-03-14T21:38:46;3.50;99.90